createdAt,value
2024-02-08T00:00:45.978Z,8.17
2024-02-08T00:03:15.396Z,8.38
2024-02-08T00:05:44.065Z,7.90
2024-02-08T00:08:13.109Z,8.18
2024-02-08T00:10:41.552Z,8.17
2024-02-08T00:13:09.671Z,7.63
2024-02-08T00:15:37.734Z,7.70
2024-02-08T00:18:06.190Z,7.43
2024-02-08T00:20:35.747Z,8.18
2024-02-08T00:23:03.873Z,7.95
2024-02-08T00:25:32.152Z,7.50
2024-02-08T00:28:00.184Z,8.05
2024-02-08T00:30:28.174Z,7.93
2024-02-08T00:32:56.265Z,7.68
2024-02-08T00:35:24.620Z,8.15
2024-02-08T00:37:54.175Z,7.60
2024-02-08T00:40:22.242Z,7.55
2024-02-08T00:42:50.368Z,7.55
2024-02-08T00:45:23.403Z,7.70
2024-02-08T00:47:52.517Z,7.45
2024-02-08T00:50:22.383Z,7.65
2024-02-08T00:52:50.623Z,8.32
2024-02-08T00:55:20.015Z,8.10
2024-02-08T00:57:48.200Z,7.65
2024-02-08T01:00:16.806Z,7.28
2024-02-08T01:02:45.214Z,7.22
2024-02-08T01:05:15.084Z,6.90
2024-02-08T01:07:43.224Z,7.13
2024-02-08T01:10:13.948Z,7.10
2024-02-08T01:12:44.357Z,7.20
2024-02-08T01:15:15.854Z,7.57
2024-02-08T01:17:44.101Z,6.65
2024-02-08T01:20:12.853Z,7.43
2024-02-08T01:22:40.961Z,7.78
2024-02-08T01:25:13.004Z,7.07
2024-02-08T01:27:42.029Z,7.07
2024-02-08T01:30:15.312Z,7.10
2024-02-08T01:32:43.351Z,6.65
2024-02-08T01:35:13.155Z,7.43
2024-02-08T01:37:45.096Z,7.65
2024-02-08T01:40:18.057Z,7.25
2024-02-08T01:42:47.418Z,6.40
2024-02-08T01:45:31.017Z,5.70
2024-02-08T01:48:00.585Z,7.18
2024-02-08T01:50:31.213Z,6.57
2024-02-08T01:53:01.509Z,5.93
2024-02-08T01:55:34.699Z,6.38
2024-02-08T01:58:04.492Z,7.20
2024-02-08T02:00:38.023Z,7.20
2024-02-08T02:03:13.025Z,6.85
2024-02-08T02:05:44.037Z,6.97
2024-02-08T02:08:13.929Z,6.90
2024-02-08T02:10:42.675Z,7.40
2024-02-08T02:13:11.286Z,6.75
2024-02-08T02:15:41.803Z,6.70
2024-02-08T02:18:11.215Z,7.47
2024-02-08T02:20:39.988Z,6.60
2024-02-08T02:23:10.551Z,7.28
2024-02-08T02:25:40.948Z,6.28
2024-02-08T02:28:09.436Z,7.20
2024-02-08T02:30:37.698Z,7.15
2024-02-08T02:33:07.411Z,6.15
2024-02-08T02:35:36.605Z,7.03
2024-02-08T02:38:05.090Z,6.43
2024-02-08T02:40:35.179Z,6.37
2024-02-08T02:43:10.971Z,5.43
2024-02-08T02:45:39.261Z,7.05
2024-02-08T02:48:09.195Z,6.38
2024-02-08T02:50:41.984Z,6.65
2024-02-08T02:53:10.666Z,6.65
2024-02-08T02:55:40.217Z,6.93
2024-02-08T02:58:08.563Z,6.82
2024-02-08T03:00:37.921Z,6.70
2024-02-08T03:03:09.697Z,6.37
2024-02-08T03:05:39.326Z,6.43
2024-02-08T03:08:07.987Z,5.90
2024-02-08T03:10:39.181Z,5.60
2024-02-08T03:13:11.669Z,6.00
2024-02-08T03:15:39.812Z,6.25
2024-02-08T03:18:09.357Z,5.30
2024-02-08T03:20:39.718Z,6.63
2024-02-08T03:23:08.117Z,5.93
2024-02-08T03:25:41.643Z,5.53
2024-02-08T03:28:12.385Z,5.78
2024-02-08T03:30:41.536Z,6.15
2024-02-08T03:33:16.936Z,5.77
2024-02-08T03:35:47.886Z,5.97
2024-02-08T03:38:16.408Z,6.47
2024-02-08T03:40:44.657Z,6.53
2024-02-08T03:43:16.890Z,6.32
2024-02-08T03:45:48.341Z,6.70
2024-02-08T03:48:16.705Z,5.97
2024-02-08T03:50:46.161Z,6.95
2024-02-08T03:53:14.983Z,6.32
2024-02-08T03:55:45.945Z,6.20
2024-02-08T03:58:16.493Z,6.60
2024-02-08T04:00:47.421Z,6.13
2024-02-08T04:03:24.586Z,6.28
2024-02-08T04:06:05.165Z,7.25
2024-02-08T04:08:50.017Z,7.07
2024-02-08T04:11:37.646Z,7.28
2024-02-08T04:14:24.702Z,7.80
2024-02-08T04:17:10.385Z,7.45
2024-02-08T04:19:56.875Z,7.53
2024-02-08T04:22:42.407Z,7.68
2024-02-08T04:25:39.285Z,7.95
2024-02-08T04:28:41.352Z,9.80
2024-02-08T04:31:31.821Z,8.52
2024-02-08T04:34:17.317Z,9.25
2024-02-08T04:36:59.263Z,9.63
2024-02-08T04:39:44.903Z,10.25
2024-02-08T04:42:38.688Z,10.60
2024-02-08T04:45:24.577Z,10.20
2024-02-08T04:48:11.509Z,11.48
2024-02-08T04:50:57.243Z,11.20
2024-02-08T04:53:37.649Z,11.32
2024-02-08T04:56:10.055Z,10.80
2024-02-08T04:59:05.580Z,12.13
2024-02-08T05:01:29.306Z,11.63
2024-02-08T05:04:01.086Z,10.95
2024-02-08T05:06:29.258Z,11.63
2024-02-08T05:09:00.775Z,12.32
2024-02-08T05:11:30.335Z,12.20
2024-02-08T05:14:01.700Z,12.55
2024-02-08T05:16:32.440Z,13.13
2024-02-08T05:19:02.285Z,12.63
2024-02-08T05:21:32.271Z,13.57
2024-02-08T05:24:00.588Z,13.65
2024-02-08T05:26:33.466Z,13.65
2024-02-08T05:29:02.169Z,13.77
2024-02-08T05:31:31.028Z,13.57
2024-02-08T05:33:59.701Z,14.05
2024-02-08T05:36:30.836Z,14.15
2024-02-08T05:38:58.976Z,14.48
2024-02-08T05:41:33.613Z,14.57
2024-02-08T05:44:06.498Z,14.93
2024-02-08T05:46:39.237Z,14.95
2024-02-08T05:49:13.208Z,15.77
2024-02-08T05:51:47.926Z,15.40
2024-02-08T05:54:21.706Z,15.80
2024-02-08T05:56:53.585Z,15.93
2024-02-08T05:59:22.405Z,15.55
2024-02-08T06:01:51.735Z,15.23
2024-02-08T06:04:24.146Z,14.98
2024-02-08T06:07:00.225Z,15.10
2024-02-08T06:09:43.523Z,15.70
2024-02-08T06:12:17.653Z,14.35
2024-02-08T06:14:45.746Z,13.55
2024-02-08T06:17:13.940Z,12.90
2024-02-08T06:19:52.215Z,14.23
2024-02-08T06:22:24.290Z,12.63
2024-02-08T06:24:55.517Z,12.98
2024-02-08T06:27:27.186Z,13.15
2024-02-08T06:29:55.254Z,12.93
2024-02-08T06:32:35.538Z,13.07
2024-02-08T06:35:10.898Z,11.67
2024-02-08T06:37:45.439Z,12.57
2024-02-08T06:40:23.138Z,11.13
2024-02-08T06:43:11.793Z,10.82
2024-02-08T06:46:10.799Z,10.00
2024-02-08T06:48:50.598Z,9.70
2024-02-08T06:51:35.810Z,9.73
2024-02-08T06:54:22.829Z,9.45
2024-02-08T06:57:08.482Z,9.25
2024-02-08T06:59:55.743Z,8.70
2024-02-08T07:02:41.549Z,8.93
2024-02-08T07:05:27.575Z,9.18
2024-02-08T07:08:13.296Z,8.20
2024-02-08T07:11:00.395Z,8.48
2024-02-08T07:13:48.310Z,8.77
2024-02-08T07:16:33.888Z,9.97
2024-02-08T07:19:19.368Z,9.33
2024-02-08T07:22:04.944Z,9.55
2024-02-08T07:24:50.672Z,9.45
2024-02-08T07:27:38.690Z,9.95
2024-02-08T07:30:25.633Z,10.50
2024-02-08T07:33:11.038Z,11.00
2024-02-08T07:35:56.570Z,9.80
2024-02-08T07:38:46.380Z,10.10
2024-02-08T07:41:20.278Z,10.68
2024-02-08T07:43:56.136Z,9.77
2024-02-08T07:46:31.895Z,10.52
2024-02-08T07:49:07.038Z,10.00
2024-02-08T07:51:35.953Z,10.05
2024-02-08T07:54:11.916Z,9.68
2024-02-08T07:56:48.051Z,9.57
2024-02-08T07:59:28.474Z,9.20
2024-02-08T08:01:59.136Z,9.03
2024-02-08T08:04:53.340Z,8.60
2024-02-08T08:07:25.503Z,8.82
2024-02-08T08:10:01.407Z,10.05
2024-02-08T08:12:32.868Z,9.18
2024-02-08T08:15:15.626Z,9.40
2024-02-08T08:17:44.788Z,9.43
2024-02-08T08:20:39.679Z,9.40
2024-02-08T08:23:26.667Z,9.57
2024-02-08T08:26:10.438Z,8.88
2024-02-08T08:28:42.352Z,9.35
2024-02-08T08:31:34.532Z,9.30
2024-02-08T08:34:23.269Z,8.82
2024-02-08T08:36:59.551Z,8.82
2024-02-08T08:40:09.439Z,9.25
2024-02-08T08:42:37.695Z,9.45
2024-02-08T08:45:10.761Z,8.23
2024-02-08T08:47:41.471Z,7.90
2024-02-08T08:50:19.391Z,8.48
2024-02-08T08:52:51.414Z,7.60
2024-02-08T08:55:21.573Z,7.67
2024-02-08T08:57:55.504Z,7.78
2024-02-08T09:00:33.340Z,7.32
2024-02-08T09:03:05.962Z,7.18
2024-02-08T09:05:37.945Z,7.50
2024-02-08T09:08:10.704Z,7.57
2024-02-08T09:10:42.578Z,7.18
2024-02-08T09:13:17.859Z,6.67
2024-02-08T09:15:57.406Z,7.00
2024-02-08T09:18:48.493Z,7.10
2024-02-08T09:21:20.440Z,7.15
2024-02-08T09:23:50.033Z,8.13
2024-02-08T09:26:25.340Z,7.15
2024-02-08T09:28:53.463Z,6.75
2024-02-08T09:31:22.075Z,6.70
2024-02-08T09:34:02.776Z,6.80
2024-02-08T09:36:33.265Z,6.68
2024-02-08T09:39:01.983Z,7.20
2024-02-08T09:41:31.688Z,6.93
2024-02-08T09:44:00.619Z,6.38
2024-02-08T09:46:50.806Z,6.95
2024-02-08T09:49:22.625Z,6.82
2024-02-08T09:51:55.817Z,6.30
2024-02-08T09:54:30.983Z,6.28
2024-02-08T09:57:04.203Z,6.40
2024-02-08T09:59:58.064Z,6.05
2024-02-08T10:02:34.187Z,6.10
2024-02-08T10:05:19.226Z,5.88
2024-02-08T10:08:07.107Z,6.15
2024-02-08T10:10:45.529Z,6.03
2024-02-08T10:13:28.116Z,6.03
2024-02-08T10:15:59.621Z,6.22
2024-02-08T10:18:39.227Z,6.85
2024-02-08T10:21:14.838Z,6.55
2024-02-08T10:23:49.686Z,5.50
2024-02-08T10:26:28.246Z,5.90
2024-02-08T10:28:59.377Z,5.77
2024-02-08T10:31:27.470Z,5.38
2024-02-08T10:34:10.912Z,5.30
2024-02-08T10:36:46.592Z,5.68
2024-02-08T10:39:26.338Z,5.05
2024-02-08T10:42:01.103Z,5.65
2024-02-08T10:44:34.564Z,5.47
2024-02-08T10:47:11.185Z,5.17
2024-02-08T10:49:46.523Z,4.85
2024-02-08T10:52:23.245Z,4.38
2024-02-08T10:54:54.547Z,4.57
2024-02-08T10:57:41.160Z,5.47
2024-02-08T11:00:27.411Z,5.00
2024-02-08T11:03:01.943Z,5.00
2024-02-08T11:05:46.051Z,4.90
2024-02-08T11:08:26.113Z,5.30
2024-02-08T11:10:59.919Z,4.72
2024-02-08T11:13:31.587Z,5.97
2024-02-08T11:16:20.546Z,5.93
2024-02-08T11:18:52.682Z,5.60
2024-02-08T11:21:25.543Z,6.65
2024-02-08T11:23:58.350Z,5.40
2024-02-08T11:26:28.271Z,6.28
2024-02-08T11:29:03.609Z,5.70
2024-02-08T11:31:33.906Z,5.78
2024-02-08T11:34:16.115Z,6.45
2024-02-08T11:36:44.772Z,5.60
2024-02-08T11:39:32.929Z,6.30
2024-02-08T11:42:02.084Z,6.15
2024-02-08T11:44:38.036Z,5.82
2024-02-08T11:47:20.250Z,5.78
2024-02-08T11:50:02.345Z,6.13
2024-02-08T11:52:31.537Z,6.43
2024-02-08T11:55:04.528Z,5.78
2024-02-08T11:57:38.040Z,5.78
2024-02-08T12:00:16.658Z,5.90
2024-02-08T12:02:48.648Z,5.27
2024-02-08T12:05:18.648Z,5.47
2024-02-08T12:07:47.668Z,5.25
2024-02-08T12:10:18.202Z,6.13
2024-02-08T12:12:47.494Z,5.63
2024-02-08T12:15:18.046Z,7.00
2024-02-08T12:17:50.215Z,5.97
2024-02-08T12:20:18.569Z,6.82
2024-02-08T12:22:54.365Z,6.28
2024-02-08T12:25:28.940Z,6.30
2024-02-08T12:27:59.842Z,6.50
2024-02-08T12:30:29.579Z,6.17
2024-02-08T12:32:58.971Z,6.75
2024-02-08T12:35:29.306Z,6.30
2024-02-08T12:38:00.023Z,6.68
2024-02-08T12:40:30.787Z,6.07
2024-02-08T12:42:59.074Z,6.60
2024-02-08T12:45:29.985Z,6.05
2024-02-08T12:47:58.871Z,6.40
2024-02-08T12:50:28.976Z,6.25
2024-02-08T12:52:59.070Z,6.57
2024-02-08T12:55:31.517Z,6.45
2024-02-08T12:58:02.954Z,7.23
2024-02-08T13:00:34.636Z,6.20
2024-02-08T13:03:08.287Z,7.10
2024-02-08T13:05:40.867Z,6.88
2024-02-08T13:08:10.937Z,7.10
2024-02-08T13:10:41.384Z,7.70
2024-02-08T13:13:12.971Z,8.13
2024-02-08T13:15:43.190Z,8.52
2024-02-08T13:18:13.275Z,8.73
2024-02-08T13:20:44.426Z,8.73
2024-02-08T13:23:13.611Z,8.18
2024-02-08T13:25:44.124Z,7.55
2024-02-08T13:28:13.037Z,8.07
2024-02-08T13:30:42.773Z,8.50
2024-02-08T13:33:12.350Z,9.07
2024-02-08T13:35:42.888Z,8.52
2024-02-08T13:38:13.166Z,9.47
2024-02-08T13:40:45.921Z,8.37
2024-02-08T13:43:15.463Z,8.55
2024-02-08T13:45:43.864Z,7.80
2024-02-08T13:48:17.165Z,8.02
2024-02-08T13:50:45.957Z,7.32
2024-02-08T13:53:16.714Z,8.52
2024-02-08T13:55:54.272Z,8.05
2024-02-08T13:58:27.433Z,8.93
2024-02-08T14:00:59.323Z,7.07
2024-02-08T14:03:31.233Z,7.85
2024-02-08T14:06:02.130Z,8.10
2024-02-08T14:08:31.441Z,7.57
2024-02-08T14:11:01.796Z,8.65
2024-02-08T14:13:36.728Z,8.27
2024-02-08T14:16:15.981Z,7.97
2024-02-08T14:18:51.814Z,7.85
2024-02-08T14:21:26.001Z,7.35
2024-02-08T14:24:01.150Z,7.15
2024-02-08T14:26:38.968Z,7.15
2024-02-08T14:29:08.828Z,7.38
2024-02-08T14:31:39.756Z,7.03
2024-02-08T14:34:11.068Z,6.60
2024-02-08T14:36:48.546Z,6.22
2024-02-08T14:39:34.350Z,5.70
2024-02-08T14:42:12.015Z,6.13
2024-02-08T14:44:45.659Z,6.23
2024-02-08T14:47:23.096Z,6.15
2024-02-08T14:50:00.695Z,5.72
2024-02-08T14:52:36.365Z,5.80
2024-02-08T14:55:12.070Z,4.90
2024-02-08T14:57:46.425Z,4.93
2024-02-08T15:00:33.128Z,5.40
2024-02-08T15:03:04.303Z,4.88
2024-02-08T15:05:48.761Z,5.23
2024-02-08T15:08:31.896Z,5.03
2024-02-08T15:11:09.790Z,5.05
2024-02-08T15:13:47.582Z,5.00
2024-02-08T15:16:22.926Z,5.47
2024-02-08T15:18:54.972Z,5.13
2024-02-08T15:21:26.693Z,4.60
2024-02-08T15:24:28.487Z,4.90
2024-02-08T15:27:09.528Z,4.68
2024-02-08T15:29:46.206Z,4.75
2024-02-08T15:32:19.729Z,4.88
2024-02-08T15:35:06.136Z,5.10
2024-02-08T15:37:42.903Z,4.97
2024-02-08T15:40:11.568Z,4.60
2024-02-08T15:42:41.997Z,5.00
2024-02-08T15:45:15.829Z,4.80
2024-02-08T15:47:56.968Z,4.60
2024-02-08T15:50:34.073Z,5.05
2024-02-08T15:53:09.949Z,4.90
2024-02-08T15:55:50.521Z,5.00
2024-02-08T15:58:20.852Z,5.00
2024-02-08T16:01:09.069Z,4.40
2024-02-08T16:03:41.314Z,5.10
2024-02-08T16:06:35.099Z,4.80
2024-02-08T16:09:03.092Z,4.45
2024-02-08T16:11:35.188Z,4.37
2024-02-08T16:14:05.903Z,4.40
2024-02-08T16:16:35.971Z,4.70
2024-02-08T16:19:18.047Z,4.72
2024-02-08T16:21:46.148Z,4.40
2024-02-08T16:24:18.963Z,4.38
2024-02-08T16:26:54.263Z,4.40
2024-02-08T16:29:35.335Z,4.90
2024-02-08T16:32:21.025Z,4.70
2024-02-08T16:34:54.830Z,4.90
2024-02-08T16:37:43.147Z,5.00
2024-02-08T16:40:18.336Z,5.13
2024-02-08T16:42:49.093Z,4.85
2024-02-08T16:45:20.088Z,5.28
2024-02-08T16:47:54.487Z,4.70
2024-02-08T16:50:28.624Z,4.70
2024-02-08T16:53:00.701Z,5.00
2024-02-08T16:55:37.845Z,4.60
2024-02-08T16:58:21.266Z,6.03
2024-02-08T17:00:56.112Z,5.70
2024-02-08T17:03:43.219Z,5.87
2024-02-08T17:06:18.113Z,6.03
2024-02-08T17:09:09.160Z,6.13
2024-02-08T17:11:41.504Z,6.53
2024-02-08T17:14:24.410Z,6.13
2024-02-08T17:17:00.864Z,6.18
2024-02-08T17:19:47.864Z,6.32
2024-02-08T17:22:50.473Z,6.35
2024-02-08T17:25:26.575Z,5.90
2024-02-08T17:28:15.864Z,6.90
2024-02-08T17:31:01.222Z,7.38
2024-02-08T17:33:31.942Z,7.35
2024-02-08T17:36:05.575Z,7.57
2024-02-08T17:38:40.673Z,7.25
2024-02-08T17:41:15.361Z,8.67
2024-02-08T17:43:50.914Z,7.82
2024-02-08T17:46:22.573Z,7.60
2024-02-08T17:48:55.567Z,7.95
2024-02-08T17:51:38.687Z,8.13
2024-02-08T17:54:09.177Z,7.60
2024-02-08T17:56:43.008Z,7.88
2024-02-08T17:59:17.356Z,7.28
2024-02-08T18:02:02.926Z,8.20
2024-02-08T18:04:38.226Z,12.32
2024-02-08T18:07:13.069Z,9.13
2024-02-08T18:09:43.800Z,9.30
2024-02-08T18:12:22.486Z,7.15
2024-02-08T18:14:51.738Z,8.00
2024-02-08T18:17:25.372Z,8.63
2024-02-08T18:19:54.448Z,8.50
2024-02-08T18:22:31.535Z,8.13
2024-02-08T18:25:00.871Z,7.68
2024-02-08T18:27:33.210Z,7.47
2024-02-08T18:30:10.569Z,7.55
2024-02-08T18:32:41.948Z,8.18
2024-02-08T18:35:11.538Z,7.53
2024-02-08T18:37:43.025Z,8.13
2024-02-08T18:40:19.753Z,8.30
2024-02-08T18:42:49.313Z,9.90
2024-02-08T18:45:18.866Z,9.32
2024-02-08T18:47:51.393Z,9.30
2024-02-08T18:50:19.908Z,9.27
2024-02-08T18:52:51.426Z,9.52
2024-02-08T18:55:34.598Z,10.10
2024-02-08T18:58:03.197Z,10.55
2024-02-08T19:00:32.399Z,11.85
2024-02-08T19:03:02.408Z,11.25
2024-02-08T19:05:32.415Z,11.65
2024-02-08T19:08:01.964Z,13.07
2024-02-08T19:10:33.043Z,11.17
2024-02-08T19:13:01.193Z,10.80
2024-02-08T19:15:30.546Z,11.27
2024-02-08T19:18:05.831Z,10.10
2024-02-08T19:21:26.995Z,9.70
2024-02-08T19:24:00.547Z,10.98
2024-02-08T19:26:29.562Z,11.67
2024-02-08T19:29:06.108Z,10.90
2024-02-08T19:35:27.353Z,10.48
2024-02-08T19:37:55.512Z,9.95
2024-02-08T19:40:25.255Z,10.95
2024-02-08T19:42:53.375Z,11.18
2024-02-08T19:45:26.623Z,11.68
2024-02-08T19:47:55.481Z,11.95
2024-02-08T19:50:29.571Z,10.60
2024-02-08T19:52:59.389Z,10.88
2024-02-08T19:55:31.689Z,11.63
2024-02-08T19:58:00.361Z,11.38
2024-02-08T20:00:31.281Z,11.43
2024-02-08T20:03:01.295Z,10.90
2024-02-08T20:05:36.577Z,11.85
2024-02-08T20:08:11.220Z,12.15
2024-02-08T20:10:40.862Z,11.90
2024-02-08T20:13:18.876Z,10.68
2024-02-08T20:15:49.140Z,12.65
2024-02-08T20:18:19.722Z,11.60
2024-02-08T20:20:48.869Z,11.95
2024-02-08T20:23:23.194Z,11.57
2024-02-08T20:26:34.910Z,11.38
2024-02-08T20:29:05.787Z,11.18
2024-02-08T20:31:34.406Z,11.93
2024-02-08T20:34:04.035Z,12.45
2024-02-08T20:36:33.742Z,13.43
2024-02-08T20:39:02.029Z,12.93
2024-02-08T20:41:30.632Z,13.73
2024-02-08T20:44:07.162Z,13.40
2024-02-08T20:46:40.423Z,14.35
2024-02-08T20:49:10.201Z,13.50
2024-02-08T20:51:38.302Z,13.25
2024-02-08T20:54:06.383Z,12.52
2024-02-08T20:56:39.347Z,14.93
2024-02-08T20:59:11.884Z,14.18
2024-02-08T21:01:41.278Z,15.60
2024-02-08T21:04:09.617Z,14.40
2024-02-08T21:06:38.079Z,12.70
2024-02-08T21:09:10.844Z,14.38
2024-02-08T21:11:41.628Z,13.25
2024-02-08T21:14:09.614Z,13.50
2024-02-08T21:16:42.642Z,12.80
2024-02-08T21:19:11.667Z,15.73
2024-02-08T21:21:39.719Z,14.82
2024-02-08T21:24:11.887Z,14.73
2024-02-08T21:26:40.861Z,15.95
2024-02-08T21:29:11.710Z,17.63
2024-02-08T21:31:46.968Z,15.35
2024-02-08T21:34:17.491Z,15.20
2024-02-08T21:36:46.351Z,15.45
2024-02-08T21:39:19.712Z,15.82
2024-02-08T21:41:49.324Z,15.50
2024-02-08T21:44:17.288Z,16.77
2024-02-08T21:46:51.092Z,17.17
2024-02-08T21:49:26.815Z,17.23
2024-02-08T21:51:56.014Z,17.17
2024-02-08T21:54:27.108Z,17.60
2024-02-08T21:56:55.884Z,18.43
2024-02-08T21:59:23.902Z,15.90
2024-02-08T22:01:53.439Z,15.98
2024-02-08T22:04:21.476Z,18.15
2024-02-08T22:06:49.851Z,19.20
2024-02-08T22:09:19.174Z,18.98
2024-02-08T22:11:48.167Z,18.17
2024-02-08T22:14:16.833Z,18.58
2024-02-08T22:16:46.008Z,18.48
2024-02-08T22:19:15.809Z,19.05
2024-02-08T22:21:46.836Z,18.00
2024-02-08T22:24:14.982Z,17.50
2024-02-08T22:26:47.468Z,19.08
2024-02-08T22:29:15.756Z,19.30
2024-02-08T22:31:47.630Z,19.98
2024-02-08T22:34:17.220Z,20.63
2024-02-08T22:36:45.300Z,18.52
2024-02-08T22:39:14.911Z,16.45
2024-02-08T22:41:43.396Z,19.60
2024-02-08T22:44:11.264Z,21.90
2024-02-08T22:46:41.055Z,22.27
2024-02-08T22:49:11.329Z,23.37
2024-02-08T22:51:42.792Z,24.27
2024-02-08T22:54:10.750Z,23.63
2024-02-08T22:56:39.044Z,24.00
2024-02-08T22:59:06.991Z,22.67
2024-02-08T23:01:58.176Z,23.15
2024-02-08T23:04:50.549Z,22.38
2024-02-08T23:07:27.936Z,23.65
2024-02-08T23:10:13.339Z,22.98
2024-02-08T23:12:44.043Z,24.95
2024-02-08T23:15:13.413Z,24.02
2024-02-08T23:17:41.615Z,25.20
2024-02-08T23:20:12.404Z,22.40
2024-02-08T23:22:42.520Z,24.58
2024-02-08T23:25:13.360Z,23.05
2024-02-08T23:27:41.404Z,22.17
2024-02-08T23:30:13.028Z,21.10
2024-02-08T23:32:43.279Z,19.05
2024-02-08T23:35:13.854Z,18.70
2024-02-08T23:37:44.791Z,18.27
2024-02-08T23:40:15.899Z,17.25
2024-02-08T23:42:44.045Z,16.83
2024-02-08T23:45:16.494Z,16.52
2024-02-08T23:47:44.521Z,15.77
2024-02-08T23:50:14.594Z,15.52
2024-02-08T23:52:44.363Z,15.18
2024-02-08T23:55:15.092Z,13.25
2024-02-08T23:57:43.346Z,14.95
